Time;durP1;ratioP1;P1;durP2;ratioP2;P2;SDS_P1;SDS_P2;PMS_P1;PMS_P2;Temp;Humidity;BMP_temperature;BMP_pressure;BME280_temperature;BME280_humidity;BME280_pressure;Samples;Min_cycle;Max_cycle;Signal;HPM_P1;HPM_P2
2022/02/17 00:00:33;;;;;;;0.70;0.50;;;;;;;;;;5118708;28;20079;-75
2022/02/17 00:02:59;;;;;;;0.30;0.30;;;;;;;;;;5118752;28;20131;-76
2022/02/17 00:05:26;;;;;;;0.30;0.30;;;;;;;;;;5118679;28;20122;-76
2022/02/17 00:07:54;;;;;;;0.70;0.50;;;;;;;;;;5116188;28;20079;-75
2022/02/17 00:10:23;;;;;;;0.75;0.43;;;;;;;;;;5117438;28;20043;-75
2022/02/17 00:12:51;;;;;;;0.80;0.60;;;;;;;;;;5118526;28;20043;-75
2022/02/17 00:15:18;;;;;;;1.75;0.40;;;;;;;;;;5118458;28;20126;-75
2022/02/17 00:17:45;;;;;;;0.45;0.43;;;;;;;;;;5117587;28;20044;-75
2022/02/17 00:20:12;;;;;;;0.63;0.63;;;;;;;;;;5117127;28;20571;-75
2022/02/17 00:22:39;;;;;;;1.25;0.77;;;;;;;;;;5117551;28;20079;-75
2022/02/17 00:25:06;;;;;;;0.30;0.30;;;;;;;;;;5118339;28;20039;-75
2022/02/17 00:27:34;;;;;;;0.60;0.60;;;;;;;;;;5118201;28;20127;-75
2022/02/17 00:30:03;;;;;;;0.98;0.50;;;;;;;;;;5118228;28;20044;-75
2022/02/17 00:32:29;;;;;;;0.43;0.30;;;;;;;;;;5117867;28;20047;-75
2022/02/17 00:34:56;;;;;;;0.90;0.30;;;;;;;;;;5118051;28;20126;-75
2022/02/17 00:37:23;;;;;;;0.93;0.55;;;;;;;;;;5116969;28;20141;-75
2022/02/17 00:39:50;;;;;;;0.85;0.52;;;;;;;;;;5117960;28;20130;-75
2022/02/17 00:42:16;;;;;;;1.17;0.45;;;;;;;;;;5117687;28;20063;-75
2022/02/17 00:44:44;;;;;;;0.30;0.30;;;;;;;;;;5117630;28;20075;-75
2022/02/17 00:47:12;;;;;;;0.40;0.40;;;;;;;;;;5116607;28;20046;-75
2022/02/17 00:49:38;;;;;;;0.38;0.30;;;;;;;;;;5117566;28;20435;-75
2022/02/17 00:52:06;;;;;;;0.30;0.30;;;;;;;;;;5117763;28;20071;-75
2022/02/17 00:54:39;;;;;;;0.40;0.30;;;;;;;;;;5117717;28;20132;-75
2022/02/17 00:57:05;;;;;;;0.70;0.40;;;;;;;;;;5116541;28;20071;-75
2022/02/17 00:59:32;;;;;;;0.28;0.28;;;;;;;;;;5117580;28;20229;-75
2022/02/17 01:01:59;;;;;;;1.45;0.40;;;;;;;;;;5116099;28;20114;-75
2022/02/17 01:04:27;;;;;;;0.20;0.20;;;;;;;;;;5117245;28;20074;-75
2022/02/17 01:06:53;;;;;;;1.17;0.50;;;;;;;;;;5117485;28;20046;-75
2022/02/17 01:09:20;;;;;;;0.63;0.40;;;;;;;;;;5115785;28;20143;-75
2022/02/17 01:11:46;;;;;;;1.65;0.50;;;;;;;;;;5117361;28;20126;-75
2022/02/17 01:14:13;;;;;;;0.25;0.25;;;;;;;;;;5117364;28;20143;-75
2022/02/17 01:16:39;;;;;;;0.40;0.40;;;;;;;;;;5116969;28;20096;-75
2022/02/17 01:19:06;;;;;;;0.82;0.38;;;;;;;;;;5117192;28;20082;-75
2022/02/17 01:21:34;;;;;;;0.40;0.40;;;;;;;;;;5117249;28;20050;-75
2022/02/17 01:24:01;;;;;;;0.20;0.20;;;;;;;;;;5117089;28;20130;-75
2022/02/17 01:26:28;;;;;;;0.40;0.40;;;;;;;;;;5117097;28;20078;-75
2022/02/17 01:28:54;;;;;;;0.30;0.30;;;;;;;;;;5117091;28;20043;-75
2022/02/17 01:31:21;;;;;;;0.40;0.30;;;;;;;;;;5117034;28;20078;-75
2022/02/17 01:33:47;;;;;;;0.65;0.38;;;;;;;;;;5116186;28;20036;-75
2022/02/17 01:36:14;;;;;;;1.20;0.30;;;;;;;;;;5116588;28;20127;-75
2022/02/17 01:38:44;;;;;;;0.80;0.38;;;;;;;;;;5115784;28;20537;-75
2022/02/17 01:41:12;;;;;;;0.55;0.55;;;;;;;;;;5116436;28;20147;-75
2022/02/17 01:43:38;;;;;;;0.63;0.30;;;;;;;;;;5115620;28;20071;-75
2022/02/17 01:46:06;;;;;;;0.30;0.30;;;;;;;;;;5116634;28;20075;-75
2022/02/17 01:48:32;;;;;;;0.35;0.30;;;;;;;;;;5115514;28;20483;-75
2022/02/17 01:50:59;;;;;;;0.40;0.20;;;;;;;;;;5115809;28;20083;-74
2022/02/17 01:53:26;;;;;;;3.03;0.60;;;;;;;;;;5116581;28;20074;-75
2022/02/17 01:55:57;;;;;;;2.28;0.40;;;;;;;;;;5116523;28;20130;-75
2022/02/17 01:58:24;;;;;;;0.35;0.30;;;;;;;;;;5116436;28;20112;-75
2022/02/17 02:00:50;;;;;;;0.77;0.50;;;;;;;;;;5115830;28;20123;-75
2022/02/17 02:03:17;;;;;;;0.65;0.32;;;;;;;;;;5116302;28;20040;-75
2022/02/17 02:05:43;;;;;;;0.50;0.35;;;;;;;;;;5116362;28;20075;-75
2022/02/17 02:08:11;;;;;;;0.30;0.20;;;;;;;;;;5114422;28;20083;-75
2022/02/17 02:10:38;;;;;;;0.47;0.20;;;;;;;;;;5115468;28;20135;-75
2022/02/17 02:13:06;;;;;;;0.40;0.28;;;;;;;;;;5115901;28;20043;-75
2022/02/17 02:15:46;;;;;;;0.43;0.32;;;;;;;;;;5115165;28;20085;-75
2022/02/17 02:18:13;;;;;;;0.38;0.20;;;;;;;;;;5116099;28;20117;-75
2022/02/17 02:20:46;;;;;;;0.55;0.40;;;;;;;;;;5114887;28;20071;-75
2022/02/17 02:23:12;;;;;;;0.40;0.30;;;;;;;;;;5116015;28;20086;-75
2022/02/17 02:25:40;;;;;;;0.38;0.15;;;;;;;;;;5114820;28;20126;-75
2022/02/17 02:28:07;;;;;;;0.77;0.35;;;;;;;;;;5114753;28;20078;-75
2022/02/17 02:30:33;;;;;;;1.00;0.30;;;;;;;;;;5115595;28;20081;-75
2022/02/17 02:33:00;;;;;;;0.20;0.20;;;;;;;;;;5115835;28;20043;-75
2022/02/17 02:35:26;;;;;;;0.10;0.10;;;;;;;;;;5115789;28;20123;-75
2022/02/17 02:37:54;;;;;;;0.28;0.25;;;;;;;;;;5115707;28;20083;-75
2022/02/17 02:40:21;;;;;;;0.30;0.20;;;;;;;;;;5115561;28;20126;-75
2022/02/17 02:42:47;;;;;;;1.77;0.35;;;;;;;;;;5114851;28;20126;-75
2022/02/17 02:45:14;;;;;;;0.20;0.20;;;;;;;;;;5115647;28;20071;-75
2022/02/17 02:47:41;;;;;;;0.25;0.25;;;;;;;;;;5114903;28;20071;-75
2022/02/17 02:50:08;;;;;;;0.20;0.20;;;;;;;;;;5115469;28;20130;-75
2022/02/17 02:52:34;;;;;;;0.52;0.30;;;;;;;;;;5114260;28;20539;-75
2022/02/17 02:55:02;;;;;;;0.90;0.52;;;;;;;;;;5114457;28;20130;-75
2022/02/17 02:57:29;;;;;;;0.30;0.20;;;;;;;;;;5115403;28;20077;-75
2022/02/17 02:59:55;;;;;;;0.10;0.10;;;;;;;;;;5115048;28;20086;-75
2022/02/17 03:02:22;;;;;;;0.75;0.38;;;;;;;;;;5114120;28;20384;-75
2022/02/17 03:04:48;;;;;;;0.10;0.10;;;;;;;;;;5115312;28;20075;-75
2022/02/17 03:07:15;;;;;;;0.20;0.10;;;;;;;;;;5115233;28;20100;-75
2022/02/17 03:09:42;;;;;;;0.60;0.30;;;;;;;;;;5113697;28;20083;-74
2022/02/17 03:12:10;;;;;;;0.30;0.22;;;;;;;;;;5114308;28;20067;-75
2022/02/17 03:14:37;;;;;;;0.10;0.10;;;;;;;;;;5114909;28;20039;-75
2022/02/17 03:17:04;;;;;;;0.20;0.20;;;;;;;;;;5115127;28;20047;-75
2022/02/17 03:19:30;;;;;;;0.35;0.20;;;;;;;;;;5114837;28;20039;-75
2022/02/17 03:21:57;;;;;;;0.40;0.20;;;;;;;;;;5114170;28;20432;-75
2022/02/17 03:24:23;;;;;;;0.10;0.10;;;;;;;;;;5115042;28;20075;-75
2022/02/17 03:26:50;;;;;;;0.10;0.10;;;;;;;;;;5114260;28;20074;-75
2022/02/17 03:29:18;;;;;;;0.43;0.20;;;;;;;;;;5114241;28;20074;-74
2022/02/17 03:31:44;;;;;;;0.10;0.10;;;;;;;;;;5114883;28;20040;-75
2022/02/17 03:34:11;;;;;;;0.10;0.10;;;;;;;;;;5113851;28;20083;-75
2022/02/17 03:36:37;;;;;;;0.22;0.20;;;;;;;;;;5113843;28;20071;-75
2022/02/17 03:39:04;;;;;;;0.15;0.10;;;;;;;;;;5114103;28;20098;-75
2022/02/17 03:41:31;;;;;;;0.60;0.13;;;;;;;;;;5114810;28;20080;-75
2022/02/17 03:43:57;;;;;;;0.13;0.10;;;;;;;;;;5114020;28;20078;-75
2022/02/17 03:46:25;;;;;;;0.28;0.10;;;;;;;;;;5114623;28;20081;-74
2022/02/17 03:48:52;;;;;;;0.63;0.63;;;;;;;;;;5113721;28;20082;-75
2022/02/17 03:51:18;;;;;;;0.00;0.00;;;;;;;;;;5113721;28;20092;-75
2022/02/17 03:53:45;;;;;;;0.00;0.00;;;;;;;;;;5114841;28;20082;-75
2022/02/17 03:56:11;;;;;;;0.15;0.05;;;;;;;;;;5114705;28;20075;-75
2022/02/17 04:01:22;;;;;;;0.10;0.10;;;;;;;;;;5113970;28;20050;-75
2022/02/17 04:03:50;;;;;;;0.10;0.10;;;;;;;;;;5114756;28;20044;-74
2022/02/17 04:06:16;;;;;;;0.00;0.00;;;;;;;;;;5114750;28;20071;-75
2022/02/17 04:08:43;;;;;;;0.15;0.15;;;;;;;;;;5112451;28;20108;-75
2022/02/17 04:11:09;;;;;;;0.28;0.03;;;;;;;;;;5113784;28;20455;-75
2022/02/17 04:13:36;;;;;;;0.00;0.00;;;;;;;;;;5114609;28;20036;-75
2022/02/17 04:16:03;;;;;;;0.00;0.00;;;;;;;;;;5113521;28;20079;-75
2022/02/17 04:18:30;;;;;;;0.65;0.30;;;;;;;;;;5114300;28;20039;-75
2022/02/17 04:20:58;;;;;;;1.38;0.10;;;;;;;;;;5114365;28;20116;-75
2022/02/17 04:23:24;;;;;;;0.00;0.00;;;;;;;;;;5114464;28;20071;-75
2022/02/17 04:25:51;;;;;;;0.17;0.10;;;;;;;;;;5114506;28;20065;-75
2022/02/17 04:28:17;;;;;;;0.08;0.08;;;;;;;;;;5113614;28;20075;-75
2022/02/17 04:30:44;;;;;;;0.00;0.00;;;;;;;;;;5114436;28;20040;-75
2022/02/17 04:33:10;;;;;;;0.65;0.10;;;;;;;;;;5114362;28;20044;-75
2022/02/17 04:35:37;;;;;;;0.10;0.10;;;;;;;;;;5114382;28;20079;-75
2022/02/17 04:38:05;;;;;;;0.47;0.08;;;;;;;;;;5115429;28;20089;-75
2022/02/17 04:43:15;;;;;;;0.10;0.10;;;;;;;;;;5117251;28;20055;-75
2022/02/17 04:45:42;;;;;;;0.45;0.10;;;;;;;;;;5117100;28;20137;-75
2022/02/17 04:48:08;;;;;;;0.63;0.17;;;;;;;;;;5117079;28;20430;-75
2022/02/17 04:50:35;;;;;;;0.30;0.10;;;;;;;;;;5117003;28;20087;-75
2022/02/17 04:53:01;;;;;;;0.00;0.00;;;;;;;;;;5117869;28;20036;-75
2022/02/17 04:55:30;;;;;;;0.00;0.00;;;;;;;;;;5117716;28;20080;-74
2022/02/17 04:57:56;;;;;;;0.13;0.00;;;;;;;;;;5117716;28;20108;-74
2022/02/17 05:00:23;;;;;;;0.20;0.10;;;;;;;;;;5116449;28;20440;-75
2022/02/17 05:02:49;;;;;;;0.13;0.05;;;;;;;;;;5117041;28;20428;-75
2022/02/17 05:05:16;;;;;;;0.30;0.22;;;;;;;;;;5117600;28;20075;-75
2022/02/17 05:07:43;;;;;;;0.22;0.22;;;;;;;;;;5115606;28;20078;-75
2022/02/17 05:10:10;;;;;;;0.10;0.10;;;;;;;;;;5116351;28;20513;-75
2022/02/17 05:12:38;;;;;;;1.13;0.40;;;;;;;;;;5117410;28;20075;-75
2022/02/17 05:15:06;;;;;;;0.10;0.10;;;;;;;;;;5116239;28;20479;-75
2022/02/17 05:17:32;;;;;;;0.25;0.10;;;;;;;;;;5117038;28;20108;-75
2022/02/17 05:19:59;;;;;;;0.10;0.10;;;;;;;;;;5117204;28;20039;-75
2022/02/17 05:22:25;;;;;;;0.20;0.20;;;;;;;;;;5117112;28;20075;-75
2022/02/17 05:24:52;;;;;;;0.52;0.20;;;;;;;;;;5116674;28;20092;-75
2022/02/17 05:27:18;;;;;;;0.45;0.10;;;;;;;;;;5117103;28;20071;-75
2022/02/17 05:29:46;;;;;;;5.18;0.22;;;;;;;;;;5117053;28;20100;-75
2022/02/17 05:32:12;;;;;;;0.05;0.05;;;;;;;;;;5116972;28;20079;-75
2022/02/17 05:34:39;;;;;;;0.30;0.20;;;;;;;;;;5117034;28;20040;-75
2022/02/17 05:37:06;;;;;;;0.38;0.15;;;;;;;;;;5116929;28;20157;-75
2022/02/17 05:39:35;;;;;;;0.00;0.00;;;;;;;;;;5116905;28;20141;-75
2022/02/17 05:42:01;;;;;;;1.25;0.25;;;;;;;;;;5116708;28;20122;-75
2022/02/17 05:44:35;;;;;;;0.10;0.10;;;;;;;;;;5116369;28;20046;-75
2022/02/17 05:47:03;;;;;;;0.70;0.30;;;;;;;;;;5116295;28;20078;-75
2022/02/17 05:49:30;;;;;;;0.40;0.40;;;;;;;;;;5115883;28;20113;-75
2022/02/17 05:51:57;;;;;;;0.20;0.10;;;;;;;;;;5116393;28;20079;-75
2022/02/17 05:54:23;;;;;;;0.10;0.10;;;;;;;;;;5116285;28;20083;-75
2022/02/17 05:56:50;;;;;;;1.00;0.10;;;;;;;;;;5115455;28;20468;-75
2022/02/17 05:59:16;;;;;;;0.20;0.10;;;;;;;;;;5115326;28;20528;-75
2022/02/17 06:01:43;;;;;;;0.10;0.10;;;;;;;;;;5116358;28;20083;-73
2022/02/17 06:04:10;;;;;;;0.17;0.10;;;;;;;;;;5115260;28;20439;-73
2022/02/17 06:06:37;;;;;;;0.00;0.00;;;;;;;;;;5116376;28;20070;-73
2022/02/17 06:09:04;;;;;;;0.10;0.10;;;;;;;;;;5114193;28;20138;-73
2022/02/17 06:11:30;;;;;;;0.28;0.20;;;;;;;;;;5115319;28;20079;-73
2022/02/17 06:13:57;;;;;;;0.32;0.13;;;;;;;;;;5115077;28;20491;-74
2022/02/17 06:16:23;;;;;;;0.35;0.17;;;;;;;;;;5116031;28;20071;-74
2022/02/17 06:18:50;;;;;;;0.47;0.40;;;;;;;;;;5115819;28;20075;-74
2022/02/17 06:21:18;;;;;;;0.15;0.00;;;;;;;;;;5115213;28;20082;-74
2022/02/17 06:23:44;;;;;;;0.15;0.00;;;;;;;;;;5115928;28;20079;-74
2022/02/17 06:26:11;;;;;;;0.40;0.20;;;;;;;;;;5115568;28;20070;-73
2022/02/17 06:28:37;;;;;;;0.82;0.22;;;;;;;;;;5114919;28;20075;-73
2022/02/17 06:31:04;;;;;;;0.20;0.20;;;;;;;;;;5115685;28;20047;-74
2022/02/17 06:33:31;;;;;;;0.20;0.10;;;;;;;;;;5114480;28;20511;-74
2022/02/17 06:35:57;;;;;;;0.45;0.20;;;;;;;;;;5115547;28;20046;-74
2022/02/17 06:38:26;;;;;;;0.60;0.20;;;;;;;;;;5115591;28;20075;-74
2022/02/17 06:40:53;;;;;;;0.25;0.20;;;;;;;;;;5115390;28;20040;-74
2022/02/17 06:43:20;;;;;;;0.10;0.10;;;;;;;;;;5115490;28;20108;-75
2022/02/17 06:45:47;;;;;;;1.33;0.10;;;;;;;;;;5114345;28;20039;-74
2022/02/17 06:48:13;;;;;;;0.35;0.10;;;;;;;;;;5114049;28;20510;-74
2022/02/17 06:50:40;;;;;;;0.95;0.25;;;;;;;;;;5114712;28;20071;-74
2022/02/17 06:53:07;;;;;;;0.25;0.20;;;;;;;;;;5114249;28;20090;-75
2022/02/17 06:55:35;;;;;;;0.00;0.00;;;;;;;;;;5115553;28;20093;-74
2022/02/17 06:58:02;;;;;;;0.10;0.10;;;;;;;;;;5115307;28;20071;-74
2022/02/17 07:00:29;;;;;;;0.22;0.10;;;;;;;;;;5114521;28;20104;-74
2022/02/17 07:02:57;;;;;;;0.00;0.00;;;;;;;;;;5115132;28;20078;-74
2022/02/17 07:05:25;;;;;;;0.75;0.20;;;;;;;;;;5114865;28;20094;-73
2022/02/17 07:07:53;;;;;;;0.28;0.10;;;;;;;;;;5113647;28;20075;-74
2022/02/17 07:10:54;;;;;;;0.40;0.20;;;;;;;;;;5074550;28;20071;-74
2022/02/17 07:13:07;;;;;;;;;;;;;;;;;;5074085;28;20068;-74
2022/02/17 07:15:35;;;;;;;1.65;0.68;;;;;;;;;;5073466;28;20353;-74
2022/02/17 07:18:02;;;;;;;0.10;0.10;;;;;;;;;;5074545;28;20040;-74
2022/02/17 07:20:30;;;;;;;0.20;0.20;;;;;;;;;;5074449;28;20036;-73
2022/02/17 07:22:57;;;;;;;0.20;0.20;;;;;;;;;;5073237;28;20124;-74
2022/02/17 07:25:23;;;;;;;0.10;0.10;;;;;;;;;;5073365;28;20472;-74
2022/02/17 07:27:50;;;;;;;0.30;0.17;;;;;;;;;;5074348;28;20083;-74
2022/02/17 07:30:18;;;;;;;1.27;0.20;;;;;;;;;;5074370;28;20093;-74
2022/02/17 07:32:45;;;;;;;0.30;0.17;;;;;;;;;;5074578;28;20044;-74
2022/02/17 07:35:12;;;;;;;0.73;0.30;;;;;;;;;;5074272;28;20040;-74
2022/02/17 07:37:39;;;;;;;0.25;0.10;;;;;;;;;;5073234;28;20044;-74
2022/02/17 07:40:07;;;;;;;0.63;0.50;;;;;;;;;;5073215;28;20232;-74
2022/02/17 07:42:34;;;;;;;0.20;0.20;;;;;;;;;;5074079;28;20044;-74
2022/02/17 07:45:00;;;;;;;0.00;0.00;;;;;;;;;;5074275;28;20076;-73
2022/02/17 07:47:28;;;;;;;0.10;0.10;;;;;;;;;;5073517;28;20044;-74
2022/02/17 07:49:56;;;;;;;0.40;0.25;;;;;;;;;;5074162;28;20080;-73
2022/02/17 07:52:23;;;;;;;0.38;0.10;;;;;;;;;;5073173;28;20048;-74
2022/02/17 07:54:49;;;;;;;0.30;0.10;;;;;;;;;;5073933;28;20040;-74
2022/02/17 07:57:16;;;;;;;0.10;0.10;;;;;;;;;;5074064;28;20107;-74
2022/02/17 07:59:42;;;;;;;0.10;0.10;;;;;;;;;;5072922;28;20431;-74
2022/02/17 08:02:09;;;;;;;0.65;0.17;;;;;;;;;;5072915;28;20114;-74
2022/02/17 08:04:37;;;;;;;0.20;0.20;;;;;;;;;;5073261;28;20080;-74
2022/02/17 08:07:05;;;;;;;0.00;0.00;;;;;;;;;;5073876;28;20044;-73
2022/02/17 08:09:32;;;;;;;0.80;0.32;;;;;;;;;;5099945;28;20417;-75
2022/02/17 08:11:58;;;;;;;0.17;0.17;;;;;;;;;;5115781;28;20126;-74
2022/02/17 08:14:25;;;;;;;0.10;0.00;;;;;;;;;;5118513;28;20078;-74
2022/02/17 08:16:51;;;;;;;0.10;0.05;;;;;;;;;;5118410;28;20043;-74
2022/02/17 08:19:18;;;;;;;4.07;0.30;;;;;;;;;;5117202;28;20074;-74
2022/02/17 08:21:46;;;;;;;0.10;0.10;;;;;;;;;;5117130;28;20552;-74
2022/02/17 08:24:13;;;;;;;0.20;0.10;;;;;;;;;;5118088;28;20078;-74
2022/02/17 08:26:40;;;;;;;0.10;0.10;;;;;;;;;;5117932;28;20051;-75
2022/02/17 08:29:07;;;;;;;0.38;0.20;;;;;;;;;;5118134;28;20097;-74
2022/02/17 08:31:34;;;;;;;0.20;0.10;;;;;;;;;;5117837;28;20052;-74
2022/02/17 08:34:03;;;;;;;1.45;0.13;;;;;;;;;;5116967;28;20479;-74
2022/02/17 08:36:29;;;;;;;0.60;0.13;;;;;;;;;;5118054;28;20039;-74
2022/02/17 08:38:57;;;;;;;0.40;0.20;;;;;;;;;;5116829;28;20438;-74
2022/02/17 08:41:24;;;;;;;0.20;0.20;;;;;;;;;;5117596;28;20071;-74
2022/02/17 08:43:51;;;;;;;2.92;1.27;;;;;;;;;;5116787;28;20468;-74
2022/02/17 08:46:19;;;;;;;1.50;0.60;;;;;;;;;;5117428;28;20092;-74
2022/02/17 08:48:46;;;;;;;0.68;0.20;;;;;;;;;;5117835;28;20083;-74
2022/02/17 08:51:13;;;;;;;1.00;0.52;;;;;;;;;;5116676;28;20061;-74
2022/02/17 08:53:40;;;;;;;0.25;0.10;;;;;;;;;;5116581;28;20047;-75
2022/02/17 08:56:08;;;;;;;0.65;0.10;;;;;;;;;;5117372;28;20141;-74
2022/02/17 08:58:34;;;;;;;0.50;0.15;;;;;;;;;;5116835;28;20082;-75
2022/02/17 09:01:01;;;;;;;0.30;0.10;;;;;;;;;;5116492;28;20051;-74
2022/02/17 09:03:27;;;;;;;0.52;0.30;;;;;;;;;;5116719;28;20075;-74
2022/02/17 09:05:54;;;;;;;0.47;0.22;;;;;;;;;;5116395;28;20039;-74
2022/02/17 09:08:21;;;;;;;0.77;0.43;;;;;;;;;;5114804;28;20410;-75
2022/02/17 09:10:47;;;;;;;1.75;0.20;;;;;;;;;;5117390;28;20043;-74
2022/02/17 09:13:15;;;;;;;0.15;0.15;;;;;;;;;;5117301;28;20082;-73
2022/02/17 09:15:43;;;;;;;2.63;0.40;;;;;;;;;;5116917;28;20040;-73
2022/02/17 09:18:09;;;;;;;1.85;0.25;;;;;;;;;;5116071;28;20061;-74
2022/02/17 09:20:36;;;;;;;1.40;0.50;;;;;;;;;;5117133;28;20075;-74
2022/02/17 09:23:03;;;;;;;3.65;0.68;;;;;;;;;;5116533;28;20092;-73
2022/02/17 09:25:29;;;;;;;0.65;0.30;;;;;;;;;;5116632;28;20078;-74
2022/02/17 09:27:56;;;;;;;1.70;0.50;;;;;;;;;;5115921;28;20561;-75
2022/02/17 09:30:24;;;;;;;5.75;0.70;;;;;;;;;;5116775;28;20075;-74
2022/02/17 09:32:51;;;;;;;1.20;0.30;;;;;;;;;;5116653;28;20124;-74
2022/02/17 09:35:17;;;;;;;3.78;0.70;;;;;;;;;;5116634;28;20055;-74
2022/02/17 09:37:44;;;;;;;1.45;0.40;;;;;;;;;;5116662;28;20115;-74
2022/02/17 09:40:11;;;;;;;3.33;0.65;;;;;;;;;;5116590;28;20043;-74
2022/02/17 09:42:38;;;;;;;1.90;0.68;;;;;;;;;;5116472;28;20043;-74
2022/02/17 09:45:05;;;;;;;3.60;0.70;;;;;;;;;;5116573;28;20043;-74
2022/02/17 09:47:33;;;;;;;2.50;0.85;;;;;;;;;;5116502;28;20039;-75
2022/02/17 09:50:00;;;;;;;3.55;0.80;;;;;;;;;;5115531;28;20537;-74
2022/02/17 09:52:27;;;;;;;6.35;1.92;;;;;;;;;;5116568;28;20048;-74
2022/02/17 09:54:54;;;;;;;3.70;0.82;;;;;;;;;;5116500;28;20043;-74
2022/02/17 09:57:21;;;;;;;2.50;1.13;;;;;;;;;;5116175;28;20096;-74
2022/02/17 09:59:48;;;;;;;3.58;1.10;;;;;;;;;;5116418;28;20043;-75
2022/02/17 10:02:22;;;;;;;3.15;0.82;;;;;;;;;;5115429;28;20500;-74
2022/02/17 10:04:54;;;;;;;7.47;1.42;;;;;;;;;;5115205;28;20463;-75
2022/02/17 10:07:30;;;;;;;2.58;0.60;;;;;;;;;;5116258;28;20071;-74
2022/02/17 10:10:07;;;;;;;4.20;1.00;;;;;;;;;;5115367;28;20048;-74
2022/02/17 10:12:54;;;;;;;4.15;1.05;;;;;;;;;;5117664;28;20093;-75
2022/02/17 10:15:28;;;;;;;2.67;0.90;;;;;;;;;;5116295;28;20046;-75
2022/02/17 10:18:06;;;;;;;3.22;0.98;;;;;;;;;;5115961;28;20118;-74
2022/02/17 10:20:55;;;;;;;4.75;1.05;;;;;;;;;;5116085;28;20082;-74
2022/02/17 10:23:23;;;;;;;5.78;1.17;;;;;;;;;;5115856;28;20047;-74
2022/02/17 10:26:01;;;;;;;7.47;1.80;;;;;;;;;;5115627;28;20084;-74
2022/02/17 10:28:28;;;;;;;3.10;0.80;;;;;;;;;;5115833;28;20057;-74
2022/02/17 10:30:56;;;;;;;3.88;1.10;;;;;;;;;;5114683;28;20040;-74
2022/02/17 10:33:23;;;;;;;4.65;2.25;;;;;;;;;;5115483;28;20047;-74
2022/02/17 10:35:55;;;;;;;2.75;1.00;;;;;;;;;;5114571;28;20552;-74
2022/02/17 10:38:22;;;;;;;2.35;0.75;;;;;;;;;;5115682;28;20036;-74
2022/02/17 10:40:52;;;;;;;5.10;1.45;;;;;;;;;;5115318;28;20089;-73
2022/02/17 10:43:19;;;;;;;3.85;0.60;;;;;;;;;;5115239;28;20043;-74
2022/02/17 10:45:47;;;;;;;8.10;1.17;;;;;;;;;;5114377;28;20479;-74
2022/02/17 10:48:19;;;;;;;2.17;0.85;;;;;;;;;;5114311;28;20097;-74
2022/02/17 10:50:47;;;;;;;7.40;1.63;;;;;;;;;;5114352;28;20061;-74
2022/02/17 10:53:22;;;;;;;5.45;1.00;;;;;;;;;;5115189;28;20039;-74
2022/02/17 10:55:53;;;;;;;5.43;1.40;;;;;;;;;;5115057;28;20407;-74
2022/02/17 10:58:22;;;;;;;4.53;0.70;;;;;;;;;;5115306;28;20084;-74
2022/02/17 11:00:49;;;;;;;4.75;1.10;;;;;;;;;;5113991;28;20075;-74
2022/02/17 11:03:16;;;;;;;9.73;1.40;;;;;;;;;;5114097;28;20552;-73
2022/02/17 11:05:51;;;;;;;5.40;1.15;;;;;;;;;;5114067;28;20081;-74
2022/02/17 11:08:17;;;;;;;2.90;1.73;;;;;;;;;;5115189;28;20074;-74
2022/02/17 11:10:52;;;;;;;13.13;3.20;;;;;;;;;;5113474;28;20090;-74
2022/02/17 11:13:26;;;;;;;4.28;0.98;;;;;;;;;;5115084;28;20075;-74
2022/02/17 11:15:54;;;;;;;7.00;2.05;;;;;;;;;;5113913;28;20088;-74
2022/02/17 11:18:21;;;;;;;5.30;1.50;;;;;;;;;;5114739;28;20433;-74
2022/02/17 11:20:49;;;;;;;2.65;1.00;;;;;;;;;;5114990;28;20066;-74
2022/02/17 11:23:18;;;;;;;8.02;1.55;;;;;;;;;;5114939;28;20082;-75
2022/02/17 11:25:48;;;;;;;7.50;1.67;;;;;;;;;;5114727;28;20047;-74
2022/02/17 11:28:16;;;;;;;5.10;1.55;;;;;;;;;;5114927;28;20044;-74
2022/02/17 11:30:44;;;;;;;5.07;1.40;;;;;;;;;;5114621;28;20043;-75
2022/02/17 11:33:28;;;;;;;4.60;1.70;;;;;;;;;;5114099;28;20083;-74
2022/02/17 11:36:00;;;;;;;5.53;1.35;;;;;;;;;;5113783;28;20364;-74
2022/02/17 11:38:34;;;;;;;9.50;1.38;;;;;;;;;;5114882;28;20126;-74
2022/02/17 11:41:07;;;;;;;8.50;1.88;;;;;;;;;;5114554;28;20035;-74
2022/02/17 11:43:35;;;;;;;5.63;2.72;;;;;;;;;;5113680;28;20079;-74
2022/02/17 11:46:01;;;;;;;7.90;1.85;;;;;;;;;;5113909;28;20104;-74
2022/02/17 11:48:36;;;;;;;8.40;2.55;;;;;;;;;;5118413;28;20095;-74
2022/02/17 11:51:17;;;;;;;9.32;2.00;;;;;;;;;;5118943;28;20071;-74
2022/02/17 11:53:45;;;;;;;7.80;2.58;;;;;;;;;;5118919;28;20044;-74
2022/02/17 11:56:44;;;;;;;7.85;2.00;;;;;;;;;;5118867;28;20043;-74
2022/02/17 11:59:27;;;;;;;4.88;1.80;;;;;;;;;;5118778;28;20055;-74
2022/02/17 12:01:56;;;;;;;5.63;1.48;;;;;;;;;;5117689;28;20040;-74
2022/02/17 12:04:25;;;;;;;6.95;1.70;;;;;;;;;;5118496;28;20047;-75
2022/02/17 12:06:52;;;;;;;6.82;1.55;;;;;;;;;;5118579;28;20097;-75
2022/02/17 12:09:43;;;;;;;8.88;1.80;;;;;;;;;;5116102;28;20467;-76
2022/02/17 12:12:37;;;;;;;9.00;2.15;;;;;;;;;;5117661;28;20035;-74
2022/02/17 12:15:06;;;;;;;6.35;1.55;;;;;;;;;;5118317;28;20431;-74
2022/02/17 12:17:34;;;;;;;8.40;1.35;;;;;;;;;;5118418;28;20040;-75
2022/02/17 12:20:06;;;;;;;5.53;2.03;;;;;;;;;;5118332;28;20204;-74
2022/02/17 12:22:33;;;;;;;6.18;1.40;;;;;;;;;;5117024;28;20039;-74
2022/02/17 12:25:16;;;;;;;7.45;1.92;;;;;;;;;;5118263;28;20097;-74
2022/02/17 12:27:49;;;;;;;3.95;0.88;;;;;;;;;;5118180;28;20043;-74
2022/02/17 12:30:27;;;;;;;5.53;1.38;;;;;;;;;;5117066;28;20093;-75
2022/02/17 12:33:05;;;;;;;5.65;1.10;;;;;;;;;;5116962;28;20092;-74
2022/02/17 12:35:32;;;;;;;7.57;1.63;;;;;;;;;;5118011;28;20089;-74
2022/02/17 12:38:06;;;;;;;7.07;1.77;;;;;;;;;;5118297;28;20101;-75
2022/02/17 12:40:33;;;;;;;6.63;2.00;;;;;;;;;;5117589;28;20075;-75
2022/02/17 12:43:02;;;;;;;9.52;1.60;;;;;;;;;;5117584;28;20082;-75
2022/02/17 12:45:34;;;;;;;6.80;1.65;;;;;;;;;;5117764;28;20122;-75
2022/02/17 12:48:00;;;;;;;6.50;0.90;;;;;;;;;;5117021;28;20132;-75
2022/02/17 12:50:27;;;;;;;8.38;1.38;;;;;;;;;;5117478;28;20108;-74
2022/02/17 12:52:54;;;;;;;7.70;1.50;;;;;;;;;;5117690;28;20071;-74
2022/02/17 12:55:20;;;;;;;8.68;1.70;;;;;;;;;;5117553;28;20089;-75
2022/02/17 12:57:53;;;;;;;8.48;1.27;;;;;;;;;;5115754;28;20483;-75
2022/02/17 13:00:21;;;;;;;5.30;1.27;;;;;;;;;;5116994;28;20046;-75
2022/02/17 13:02:49;;;;;;;6.32;1.55;;;;;;;;;;5117437;28;20071;-75
2022/02/17 13:05:15;;;;;;;3.85;1.02;;;;;;;;;;5117508;28;20118;-75
2022/02/17 13:07:42;;;;;;;4.70;1.05;;;;;;;;;;5117488;28;20068;-75
2022/02/17 13:10:09;;;;;;;4.47;1.10;;;;;;;;;;5115418;28;20109;-75
2022/02/17 13:12:35;;;;;;;2.85;1.33;;;;;;;;;;5117279;28;20046;-74
2022/02/17 13:15:05;;;;;;;6.53;1.35;;;;;;;;;;5116504;28;20039;-74
2022/02/17 13:17:35;;;;;;;4.93;0.98;;;;;;;;;;5117266;28;20047;-74
2022/02/17 13:20:23;;;;;;;5.18;1.10;;;;;;;;;;5117161;28;20116;-74
2022/02/17 13:22:49;;;;;;;4.45;1.27;;;;;;;;;;5116903;28;20098;-75
2022/02/17 13:25:16;;;;;;;8.40;1.30;;;;;;;;;;5116026;28;20094;-75
2022/02/17 13:27:44;;;;;;;3.30;1.25;;;;;;;;;;5116753;28;20082;-75
2022/02/17 13:30:13;;;;;;;6.47;1.58;;;;;;;;;;5116788;28;20109;-75
2022/02/17 13:32:42;;;;;;;5.93;1.10;;;;;;;;;;5116684;28;20046;-75
2022/02/17 13:35:10;;;;;;;7.85;2.03;;;;;;;;;;5116697;28;20071;-74
2022/02/17 13:37:41;;;;;;;7.40;1.38;;;;;;;;;;5115750;28;20093;-75
2022/02/17 13:40:09;;;;;;;9.40;1.52;;;;;;;;;;5115797;28;20096;-75
2022/02/17 13:42:36;;;;;;;6.20;1.30;;;;;;;;;;5116892;28;20093;-75
2022/02/17 13:45:18;;;;;;;7.63;2.15;;;;;;;;;;5116401;28;20075;-75
2022/02/17 13:47:49;;;;;;;6.38;1.77;;;;;;;;;;5115987;28;20036;-75
2022/02/17 13:50:18;;;;;;;8.82;1.45;;;;;;;;;;5116576;28;20043;-75
2022/02/17 13:53:01;;;;;;;4.70;1.60;;;;;;;;;;5115545;28;20486;-74
2022/02/17 13:55:29;;;;;;;9.48;2.30;;;;;;;;;;5115453;28;20504;-75
2022/02/17 13:57:57;;;;;;;10.30;2.08;;;;;;;;;;5116103;28;20039;-75
2022/02/17 14:00:27;;;;;;;10.05;1.90;;;;;;;;;;5115828;28;20092;-75
2022/02/17 14:02:55;;;;;;;10.98;2.28;;;;;;;;;;5115871;28;20043;-74
2022/02/17 14:05:29;;;;;;;8.13;2.45;;;;;;;;;;5116239;28;20043;-74
2022/02/17 14:07:55;;;;;;;9.32;2.47;;;;;;;;;;5116275;28;20120;-75
2022/02/17 14:10:22;;;;;;;11.07;2.88;;;;;;;;;;5114269;28;20082;-75
2022/02/17 14:12:48;;;;;;;11.05;3.53;;;;;;;;;;5116142;28;20086;-75
2022/02/17 14:15:15;;;;;;;11.80;2.85;;;;;;;;;;5116163;28;20077;-75
2022/02/17 14:17:42;;;;;;;7.45;2.85;;;;;;;;;;5115158;28;20078;-75
2022/02/17 14:20:10;;;;;;;8.93;2.78;;;;;;;;;;5116073;28;20075;-75
2022/02/17 14:22:37;;;;;;;9.50;1.67;;;;;;;;;;5116005;28;20053;-75
2022/02/17 14:25:04;;;;;;;9.10;1.98;;;;;;;;;;5115599;28;20116;-75
2022/02/17 14:27:30;;;;;;;7.40;1.63;;;;;;;;;;5114797;28;20036;-75
2022/02/17 14:29:57;;;;;;;6.30;2.33;;;;;;;;;;5115061;28;20039;-75
2022/02/17 14:32:23;;;;;;;8.20;2.13;;;;;;;;;;5115505;28;20097;-74
2022/02/17 14:37:36;;;;;;;5.35;1.50;;;;;;;;;;5114964;28;20050;-75
2022/02/17 14:40:02;;;;;;;6.50;1.88;;;;;;;;;;5115501;28;20035;-75
2022/02/17 14:42:29;;;;;;;6.60;1.55;;;;;;;;;;5115667;28;20089;-75
2022/02/17 14:44:57;;;;;;;8.13;1.95;;;;;;;;;;5115521;28;20075;-75
2022/02/17 14:47:24;;;;;;;6.88;1.48;;;;;;;;;;5115662;28;20054;-75
2022/02/17 14:49:52;;;;;;;5.43;1.42;;;;;;;;;;5114496;28;20071;-75
2022/02/17 14:52:19;;;;;;;15.00;1.90;;;;;;;;;;5114421;28;20093;-75
2022/02/17 14:54:47;;;;;;;4.95;2.22;;;;;;;;;;5115181;28;20043;-75
2022/02/17 14:57:13;;;;;;;4.38;1.50;;;;;;;;;;5115156;28;20043;-74